« 美ら島エアーフェスタ2017【初日4】 那覇空港 2017/12/9 sat | トップページ | 定点 富山空港 2017/12/27 wed »

2017/12/26

美ら島エアーフェスタ2017【初日5】 那覇空港 2017/12/9 sat

その4からつづき

20171209_roah_500ja656j

JAL912 ROAH-RJTT JA656J B767-346ER

20171209_roah_501ja359k

ANA1872 ROAH-RJFU JA359K B737-5L9

20171209_roah_502hl8206

JJA1802 RKSI-ROAH HL8206 B737-86J

20171209_roah_503ja73nm

SKY532 ROAH-RJAH JA73NM B737-81D

20171209_roah_504hl8057

ESR632 ROAH-RKSI HL8057 B737-86J

20171209_roah_505f15

アラートお帰りです

20171209_roah_506ja8999

JTA212 ROKJ-ROAH JA8999 B737-446

ROAH 090700Z 05006KT 010V090 9999 FEW040 SCT060 BKN/// 18/08 Q1017 RMK 1SC040 3SC060 A3005

20171209_roah_507ja83rc

RAC879 ROAH-ROKJ JA83RC DHC8-402EC

20171209_roah_508f528859

52-8859 F-15J 303SQ L27

20171209_roah_509f428837

42-8837 F-15J 303SQ L28

20171209_roah_510ja301k

ANA1726 ROMY-ROAH JA301K B737-54K

20171209_roah_511ep3

嘉手納に尻尾の短い怪しいヤツ、アプローチ

20171209_roah_512f928908

92-8908 F-15J 204SQ L15

20171209_roah_513f928908

機動飛行編隊がローアプローチからゴー

20171209_roah_514f928908

次はT/G

20171209_roah_515f228929

22-8929 F-15J 204SQ L16

20171209_roah_516f228929

僚機はT/Gからハイレイト

ROAH 090700Z 05006KT 010V090 9999 FEW040 SCT060 BKN/// 18/08 Q1017 RMK 1SC040 3SC060 A3005

20171209_roah_517ja05jj

JJP384 ROAH-RJGG JA05JJ A320-243

20171209_roah_518ja73nt

SKY506 ROAH-RJFF JA73NT B737-86N

20171209_roah_519ja79an

ANA1268 ROAH-RJOI JA79AN B737-881

20171209_roah_520ja01rk

JTA58 ROAH-RJFF JA01RK B737-8Q3

20171209_roah_521ja84rc

RAC705 ROAH-ROIG JA84RC DHC8-402EC

20171209_roah_522ja657j

JAL917 RJTT-ROAH JA657J B767-346ER

20171209_roah_523ja76an

ANA1210 ROAH-RJFF JA76AN B737-881

20171209_roah_524e343460

34-3460 どこかへドナドナされて行きます。給油かな。

20171209_roah_525ja808x

SNJ25 RJBE-ROAH JA808X B737-81D

20171209_roah_526ja73nm

SKY532 ROAH-RJAH JA73NM B737-81D

20171209_roah_527b1678

CES287 ZSPD-ROAH B-1678 A320-232

20171209_roah_528blne

CRK657 ROAH-VHHH B-LNE A330-223

20171209_roah_529ja752a

ANA473 RJTT-ROAH JA752A B777-381

20171209_roah_530f428833

42-8833 F-15J 303SQ L29

20171209_roah_531f328827

32-8827 F-15J 303SQ L30

20171209_roah_532ja71an

ANA1868 ROAH-RJFT JA71AN B737-881

20171209_roah_533ja737q

SKY517 RJTT-ROAH JA737Q B737-86N

20171209_roah_534ja710a

ANA470 ROAH-RJTT JA710A B777-281ER

20171209_roah_535ja743a

ANA767 RJOO-ROAH JA743A B777-281ER

20171209_roah_536ja79an

ANA1268 ROAH-RJOI JA79AN B737-881

20171209_roah_537f15

展示飛行終了です。

20171209_roah_538f928908

92-8908 F-15J 204SQ L15

20171209_roah_539f228929

22-8929 F-15J 204SQ L16

20171209_roah_540ja300k

ANA1727 ROAH-ROMY JA300K B737-54K

20171209_roah_541f228931

22-8931 F-15J 304SQ L31 こちらはアラート帰り

20171209_roah_542f928908

#908

20171209_roah_543f328816

32-8818 F-15J 303SQ L32

ROAH 090730Z 04006KT 010V110 9999 FEW040 SCT060 19/08 Q1017 RMK 1SC040 3SC060 A3004

20171209_roah_544f228929

#929

20171209_roah_545ja03jj

JJP355 RJBB-ROAH JA03JJ B737-243

20171209_roah_546ja01rk

JTA58 ROAH-RJFF JA01RK B737-8Q3

20171209_roah_547hl8021

TWB271 RKSI-ROAH HL8021 B737-8GJ

20171209_roah_548ja84rc

RAC705 ROAH-ROIG JA84RC DHC8-402EC

20171209_roah_549bhsj

HDA379 ROAH-VHHH B-HSJ A320-232

20171209_roah_550ja737t

SKY507 RJFF-ROAH JA737T B737-8Q8

20171209_roah_551ja02rk

JTA582 ROMY-ROAH JA02RK B737-8Q3

20171209_roah_552blne

CRK657 ROAH-VHHH B-LNE A330-223

20171209_roah_553ja8939

JTA5 RJBB-ROAH JA8939 B737-4Q3

20171209_roah_554ja8999

JTA44 ROAH-RJGG JA8999 B737-446

20171209_roah_555ja8998

JTA37 RJNK-ROAH JA8998 B737-446

20171209_roah_556ja819p

APJ927 ROAH-RCTP JA819P A320-214

20171209_roah_557ja614a

ANA306 ROAH-RJGG JA614A B767-381ER

20171209_roah_558fvc

会場の撤収が始まりました。消防さんお疲れ様。

20171209_roah_559bhsj

HDA379 ROAH-VHHH B-HSJ A320-232

20171209_roah_560prq

敬礼! 警察さんも明日また・・。

20171209_roah_561ja772j

JAL914 ROAH-RJTT JA772J B777-246

ROAH 090800Z 04007KT 360V110 9999 FEW040 SCT060 BKN150 18/07 Q1017 RMK 1SC040 3SC060 6AC150 A3004

20171209_roah_562t265682

26-5682 T-4 304SQ

コクピット公開も終了して、撤収作業中。

もうこの辺りから光量が低く、会場を再度廻りながらのチョボチョボ撮りです。

20171209_roah_563ja737q

SKY594 ROAH-RJBE JA737Q B737-86N

20171209_roah_564mrt

海自さんも撤収。お疲れが見えます。明日もがんばってね。

20171209_roah_565ja743a

ANA770 ROAH-RJOO JA743A B777-281ER

ROAH 090830Z 06009KT 9999 FEW040 SCT060 BKN150 18/08 Q1017 RMK 1SC040 3SC060 6AC150 A3004

20171209_roah_566ja8939

JTA8 ROAH-RJBB JA8939 B737-446

20171209_roah_567ja743a

ANA770 ROAH-RJOO JA743A B777-281ER

20171209_roah_568b1678

CES288 ROAH-ZSPD B-1678 A320-214

20171209_roah_569b1603

CBJ367 ZSHC-ROAH B-1603 A320-214

20171209_roah_570ja05rk

JTA47 RJGG-ROAH JA05RK B737-8Q3

20171209_roah_571hl8021

TWB272 ROAH-RKSI HL8021 B737-8GJ

20171209_roah_572e343452

ドナドナされた#452が帰ってきました。

20171209_roah_573e343452

いつでも出撃できるよう、整備に余念がありません。

その6へつづく・・・

|

« 美ら島エアーフェスタ2017【初日4】 那覇空港 2017/12/9 sat | トップページ | 定点 富山空港 2017/12/27 wed »

那覇空港」カテゴリの記事

コメント

コメントを書く



(ウェブ上には掲載しません)


コメントは記事投稿者が公開するまで表示されません。



トラックバック


この記事へのトラックバック一覧です: 美ら島エアーフェスタ2017【初日5】 那覇空港 2017/12/9 sat:

« 美ら島エアーフェスタ2017【初日4】 那覇空港 2017/12/9 sat | トップページ | 定点 富山空港 2017/12/27 wed »